sensor_id;sensor_type;location;lat;lon;timestamp;temperature;humidity
10678;DHT22;5387;48.722;9.110;2023-09-19T00:00:16;15.80;99.90
10678;DHT22;5387;48.722;9.110;2023-09-19T00:02:46;15.70;99.90
10678;DHT22;5387;48.722;9.110;2023-09-19T00:05:13;15.70;99.90
10678;DHT22;5387;48.722;9.110;2023-09-19T00:07:40;15.70;99.90
10678;DHT22;5387;48.722;9.110;2023-09-19T00:10:07;15.50;99.90
10678;DHT22;5387;48.722;9.110;2023-09-19T00:12:35;15.60;99.90
10678;DHT22;5387;48.722;9.110;2023-09-19T00:15:02;15.60;99.90
10678;DHT22;5387;48.722;9.110;2023-09-19T00:17:29;15.60;99.90
10678;DHT22;5387;48.722;9.110;2023-09-19T00:19:58;15.60;99.90
10678;DHT22;5387;48.722;9.110;2023-09-19T00:22:32;15.60;99.90
10678;DHT22;5387;48.722;9.110;2023-09-19T00:24:59;15.60;99.90
10678;DHT22;5387;48.722;9.110;2023-09-19T00:27:26;15.50;99.90
10678;DHT22;5387;48.722;9.110;2023-09-19T00:29:53;15.60;99.90
10678;DHT22;5387;48.722;9.110;2023-09-19T00:32:20;15.60;99.90
10678;DHT22;5387;48.722;9.110;2023-09-19T00:34:47;15.50;99.90
10678;DHT22;5387;48.722;9.110;2023-09-19T00:37:15;15.40;99.90
10678;DHT22;5387;48.722;9.110;2023-09-19T00:39:43;15.50;99.90
10678;DHT22;5387;48.722;9.110;2023-09-19T00:42:18;15.60;99.90
10678;DHT22;5387;48.722;9.110;2023-09-19T00:44:46;15.50;99.90
10678;DHT22;5387;48.722;9.110;2023-09-19T00:47:13;15.40;99.90
10678;DHT22;5387;48.722;9.110;2023-09-19T00:49:43;15.50;99.90
10678;DHT22;5387;48.722;9.110;2023-09-19T00:52:10;15.30;99.90
10678;DHT22;5387;48.722;9.110;2023-09-19T00:54:39;15.40;99.90
10678;DHT22;5387;48.722;9.110;2023-09-19T00:57:06;15.50;99.90
10678;DHT22;5387;48.722;9.110;2023-09-19T00:59:33;15.50;99.90
10678;DHT22;5387;48.722;9.110;2023-09-19T01:02:01;15.40;99.90
10678;DHT22;5387;48.722;9.110;2023-09-19T01:04:29;15.40;99.90
10678;DHT22;5387;48.722;9.110;2023-09-19T01:06:57;15.60;99.90
10678;DHT22;5387;48.722;9.110;2023-09-19T01:09:24;15.60;99.90
10678;DHT22;5387;48.722;9.110;2023-09-19T01:11:58;15.60;99.90
10678;DHT22;5387;48.722;9.110;2023-09-19T01:14:33;15.60;99.90
10678;DHT22;5387;48.722;9.110;2023-09-19T01:17:06;15.60;99.90
10678;DHT22;5387;48.722;9.110;2023-09-19T01:20:11;15.60;99.90
10678;DHT22;5387;48.722;9.110;2023-09-19T01:22:48;15.60;99.90
10678;DHT22;5387;48.722;9.110;2023-09-19T01:26:05;15.60;99.90
10678;DHT22;5387;48.722;9.110;2023-09-19T01:28:43;15.60;99.90
10678;DHT22;5387;48.722;9.110;2023-09-19T01:31:14;15.60;99.90
10678;DHT22;5387;48.722;9.110;2023-09-19T01:33:58;15.60;99.90
10678;DHT22;5387;48.722;9.110;2023-09-19T01:36:30;15.60;99.90
10678;DHT22;5387;48.722;9.110;2023-09-19T01:39:00;15.60;99.90
10678;DHT22;5387;48.722;9.110;2023-09-19T01:41:47;15.60;99.90
10678;DHT22;5387;48.722;9.110;2023-09-19T01:44:24;15.70;99.90
10678;DHT22;5387;48.722;9.110;2023-09-19T01:46:58;15.70;99.90
10678;DHT22;5387;48.722;9.110;2023-09-19T01:49:33;15.60;99.90
10678;DHT22;5387;48.722;9.110;2023-09-19T01:52:10;15.80;99.90
10678;DHT22;5387;48.722;9.110;2023-09-19T01:54:45;15.80;99.90
10678;DHT22;5387;48.722;9.110;2023-09-19T01:57:17;15.80;99.90
10678;DHT22;5387;48.722;9.110;2023-09-19T01:59:50;15.70;99.90
10678;DHT22;5387;48.722;9.110;2023-09-19T02:02:20;15.50;99.90
10678;DHT22;5387;48.722;9.110;2023-09-19T02:04:48;15.70;99.90
10678;DHT22;5387;48.722;9.110;2023-09-19T02:07:16;15.60;99.90
10678;DHT22;5387;48.722;9.110;2023-09-19T02:09:43;15.50;99.90
10678;DHT22;5387;48.722;9.110;2023-09-19T02:12:09;15.50;99.90
10678;DHT22;5387;48.722;9.110;2023-09-19T02:14:36;15.50;99.90
10678;DHT22;5387;48.722;9.110;2023-09-19T02:17:03;15.30;99.90
10678;DHT22;5387;48.722;9.110;2023-09-19T02:19:33;15.50;99.90
10678;DHT22;5387;48.722;9.110;2023-09-19T02:22:00;15.30;99.90
10678;DHT22;5387;48.722;9.110;2023-09-19T02:24:28;15.20;99.90
10678;DHT22;5387;48.722;9.110;2023-09-19T02:26:55;15.30;99.90
10678;DHT22;5387;48.722;9.110;2023-09-19T02:29:25;15.30;99.90
10678;DHT22;5387;48.722;9.110;2023-09-19T02:31:52;15.40;99.90
10678;DHT22;5387;48.722;9.110;2023-09-19T02:34:21;15.30;99.90
10678;DHT22;5387;48.722;9.110;2023-09-19T02:36:50;15.30;99.90
10678;DHT22;5387;48.722;9.110;2023-09-19T02:39:19;15.20;99.90
10678;DHT22;5387;48.722;9.110;2023-09-19T02:41:46;15.10;99.90
10678;DHT22;5387;48.722;9.110;2023-09-19T02:44:13;15.10;99.90
10678;DHT22;5387;48.722;9.110;2023-09-19T02:46:39;15.10;99.90
10678;DHT22;5387;48.722;9.110;2023-09-19T02:49:07;15.10;99.90
10678;DHT22;5387;48.722;9.110;2023-09-19T02:51:34;15.00;99.90
10678;DHT22;5387;48.722;9.110;2023-09-19T02:54:03;15.00;99.90
10678;DHT22;5387;48.722;9.110;2023-09-19T02:56:29;15.00;99.90
10678;DHT22;5387;48.722;9.110;2023-09-19T02:58:58;15.10;99.90
10678;DHT22;5387;48.722;9.110;2023-09-19T03:01:26;15.20;99.90
10678;DHT22;5387;48.722;9.110;2023-09-19T03:03:53;15.20;99.90
10678;DHT22;5387;48.722;9.110;2023-09-19T03:06:20;15.30;99.90
10678;DHT22;5387;48.722;9.110;2023-09-19T03:08:47;15.40;99.90
10678;DHT22;5387;48.722;9.110;2023-09-19T03:11:16;15.50;99.90
10678;DHT22;5387;48.722;9.110;2023-09-19T03:13:50;15.50;99.90
10678;DHT22;5387;48.722;9.110;2023-09-19T03:16:16;15.60;99.90
10678;DHT22;5387;48.722;9.110;2023-09-19T03:18:44;15.60;99.90
10678;DHT22;5387;48.722;9.110;2023-09-19T03:21:12;15.60;99.90
10678;DHT22;5387;48.722;9.110;2023-09-19T03:23:40;15.50;99.90
10678;DHT22;5387;48.722;9.110;2023-09-19T03:26:07;15.50;99.90
10678;DHT22;5387;48.722;9.110;2023-09-19T03:28:35;15.60;99.90
10678;DHT22;5387;48.722;9.110;2023-09-19T03:31:02;15.60;99.90
10678;DHT22;5387;48.722;9.110;2023-09-19T03:33:30;15.60;99.90
10678;DHT22;5387;48.722;9.110;2023-09-19T03:35:58;15.60;99.90
10678;DHT22;5387;48.722;9.110;2023-09-19T03:38:26;15.70;99.90
10678;DHT22;5387;48.722;9.110;2023-09-19T03:40:54;15.70;99.90
10678;DHT22;5387;48.722;9.110;2023-09-19T03:43:21;15.70;99.90
10678;DHT22;5387;48.722;9.110;2023-09-19T03:45:49;15.70;99.90
10678;DHT22;5387;48.722;9.110;2023-09-19T03:48:16;15.60;99.90
10678;DHT22;5387;48.722;9.110;2023-09-19T03:50:43;15.70;99.90
10678;DHT22;5387;48.722;9.110;2023-09-19T03:53:10;15.60;99.90
10678;DHT22;5387;48.722;9.110;2023-09-19T03:55:36;15.60;99.90
10678;DHT22;5387;48.722;9.110;2023-09-19T03:58:04;15.50;99.90
10678;DHT22;5387;48.722;9.110;2023-09-19T04:00:31;15.50;99.90
10678;DHT22;5387;48.722;9.110;2023-09-19T04:02:59;15.50;99.90
10678;DHT22;5387;48.722;9.110;2023-09-19T04:05:27;15.30;99.90
10678;DHT22;5387;48.722;9.110;2023-09-19T04:07:54;15.50;99.90
10678;DHT22;5387;48.722;9.110;2023-09-19T04:10:21;15.40;99.90
10678;DHT22;5387;48.722;9.110;2023-09-19T04:12:51;15.30;99.90
10678;DHT22;5387;48.722;9.110;2023-09-19T04:15:18;15.20;99.90
10678;DHT22;5387;48.722;9.110;2023-09-19T04:17:45;15.20;99.90
10678;DHT22;5387;48.722;9.110;2023-09-19T04:20:13;15.20;99.90
10678;DHT22;5387;48.722;9.110;2023-09-19T04:22:40;15.20;99.90
10678;DHT22;5387;48.722;9.110;2023-09-19T04:25:07;15.30;99.90
10678;DHT22;5387;48.722;9.110;2023-09-19T04:27:34;15.10;99.90
10678;DHT22;5387;48.722;9.110;2023-09-19T04:30:01;15.30;99.90
10678;DHT22;5387;48.722;9.110;2023-09-19T04:32:35;15.20;99.90
10678;DHT22;5387;48.722;9.110;2023-09-19T04:35:04;15.20;99.90
10678;DHT22;5387;48.722;9.110;2023-09-19T04:37:36;15.30;99.90
10678;DHT22;5387;48.722;9.110;2023-09-19T04:40:05;15.30;99.90
10678;DHT22;5387;48.722;9.110;2023-09-19T04:42:32;15.30;99.90
10678;DHT22;5387;48.722;9.110;2023-09-19T04:44:59;15.30;99.90
10678;DHT22;5387;48.722;9.110;2023-09-19T04:47:26;15.30;99.90
10678;DHT22;5387;48.722;9.110;2023-09-19T04:49:53;15.50;99.90
10678;DHT22;5387;48.722;9.110;2023-09-19T04:52:19;15.60;99.90
10678;DHT22;5387;48.722;9.110;2023-09-19T04:54:47;15.70;99.90
10678;DHT22;5387;48.722;9.110;2023-09-19T04:57:15;15.70;99.90
10678;DHT22;5387;48.722;9.110;2023-09-19T04:59:41;15.70;99.90
10678;DHT22;5387;48.722;9.110;2023-09-19T05:02:08;15.80;99.90
10678;DHT22;5387;48.722;9.110;2023-09-19T05:04:35;15.70;99.90
10678;DHT22;5387;48.722;9.110;2023-09-19T05:07:03;15.80;99.90
10678;DHT22;5387;48.722;9.110;2023-09-19T05:09:30;15.60;99.90
10678;DHT22;5387;48.722;9.110;2023-09-19T05:12:00;15.40;99.90
10678;DHT22;5387;48.722;9.110;2023-09-19T05:14:27;15.40;99.90
10678;DHT22;5387;48.722;9.110;2023-09-19T05:16:54;15.20;99.90
10678;DHT22;5387;48.722;9.110;2023-09-19T05:19:21;15.20;99.90
10678;DHT22;5387;48.722;9.110;2023-09-19T05:21:48;15.00;99.90
10678;DHT22;5387;48.722;9.110;2023-09-19T05:24:14;15.00;99.90
10678;DHT22;5387;48.722;9.110;2023-09-19T05:26:42;15.00;99.90
10678;DHT22;5387;48.722;9.110;2023-09-19T05:29:11;14.90;99.90
10678;DHT22;5387;48.722;9.110;2023-09-19T05:31:38;14.90;99.90
10678;DHT22;5387;48.722;9.110;2023-09-19T05:34:06;14.90;99.90
10678;DHT22;5387;48.722;9.110;2023-09-19T05:36:33;14.90;99.90
10678;DHT22;5387;48.722;9.110;2023-09-19T05:39:00;14.90;99.90
10678;DHT22;5387;48.722;9.110;2023-09-19T05:41:27;15.00;99.90
10678;DHT22;5387;48.722;9.110;2023-09-19T05:43:54;15.00;99.90
10678;DHT22;5387;48.722;9.110;2023-09-19T05:46:22;15.00;99.90
10678;DHT22;5387;48.722;9.110;2023-09-19T05:48:49;15.00;99.90
10678;DHT22;5387;48.722;9.110;2023-09-19T05:51:16;15.10;99.90
10678;DHT22;5387;48.722;9.110;2023-09-19T05:53:48;15.20;99.90
10678;DHT22;5387;48.722;9.110;2023-09-19T05:56:15;15.30;99.90
10678;DHT22;5387;48.722;9.110;2023-09-19T05:58:44;15.30;99.90
10678;DHT22;5387;48.722;9.110;2023-09-19T06:01:11;15.10;99.90
10678;DHT22;5387;48.722;9.110;2023-09-19T06:03:40;15.00;99.90
10678;DHT22;5387;48.722;9.110;2023-09-19T06:06:07;15.00;99.90
10678;DHT22;5387;48.722;9.110;2023-09-19T06:08:34;15.00;99.90
10678;DHT22;5387;48.722;9.110;2023-09-19T06:11:01;14.80;99.90
10678;DHT22;5387;48.722;9.110;2023-09-19T06:13:30;14.80;99.90
10678;DHT22;5387;48.722;9.110;2023-09-19T06:15:59;14.80;99.90
10678;DHT22;5387;48.722;9.110;2023-09-19T06:18:28;14.70;99.90
10678;DHT22;5387;48.722;9.110;2023-09-19T06:21:00;14.60;99.90
10678;DHT22;5387;48.722;9.110;2023-09-19T06:23:30;14.50;99.90
10678;DHT22;5387;48.722;9.110;2023-09-19T06:25:57;14.30;99.90
10678;DHT22;5387;48.722;9.110;2023-09-19T06:28:24;14.40;99.90
10678;DHT22;5387;48.722;9.110;2023-09-19T06:30:53;14.40;99.90
10678;DHT22;5387;48.722;9.110;2023-09-19T06:33:20;14.30;99.90
10678;DHT22;5387;48.722;9.110;2023-09-19T06:35:48;14.40;99.90
10678;DHT22;5387;48.722;9.110;2023-09-19T06:38:16;14.40;99.90
10678;DHT22;5387;48.722;9.110;2023-09-19T06:40:44;14.40;99.90
10678;DHT22;5387;48.722;9.110;2023-09-19T06:43:11;14.50;99.90
10678;DHT22;5387;48.722;9.110;2023-09-19T06:45:39;14.60;99.90
10678;DHT22;5387;48.722;9.110;2023-09-19T06:48:06;14.60;99.90
10678;DHT22;5387;48.722;9.110;2023-09-19T06:50:34;14.50;99.90
10678;DHT22;5387;48.722;9.110;2023-09-19T06:53:01;14.70;99.90
10678;DHT22;5387;48.722;9.110;2023-09-19T06:55:29;14.70;99.90
10678;DHT22;5387;48.722;9.110;2023-09-19T06:57:56;14.70;99.90
10678;DHT22;5387;48.722;9.110;2023-09-19T07:00:24;14.80;99.90
10678;DHT22;5387;48.722;9.110;2023-09-19T07:02:57;15.00;99.90
10678;DHT22;5387;48.722;9.110;2023-09-19T07:05:26;15.10;99.90
10678;DHT22;5387;48.722;9.110;2023-09-19T07:07:54;15.20;99.90
10678;DHT22;5387;48.722;9.110;2023-09-19T07:10:22;15.40;99.90
10678;DHT22;5387;48.722;9.110;2023-09-19T07:12:56;15.50;99.90
10678;DHT22;5387;48.722;9.110;2023-09-19T07:15:23;15.60;99.90
10678;DHT22;5387;48.722;9.110;2023-09-19T07:17:51;15.60;99.90
10678;DHT22;5387;48.722;9.110;2023-09-19T07:20:18;15.70;99.90
10678;DHT22;5387;48.722;9.110;2023-09-19T07:22:45;15.60;99.90
10678;DHT22;5387;48.722;9.110;2023-09-19T07:25:13;15.70;99.90
10678;DHT22;5387;48.722;9.110;2023-09-19T07:27:40;15.80;99.90
10678;DHT22;5387;48.722;9.110;2023-09-19T07:30:10;15.90;99.90
10678;DHT22;5387;48.722;9.110;2023-09-19T07:32:37;16.00;99.90
10678;DHT22;5387;48.722;9.110;2023-09-19T07:35:05;16.00;99.90
10678;DHT22;5387;48.722;9.110;2023-09-19T07:37:32;15.90;99.90
10678;DHT22;5387;48.722;9.110;2023-09-19T07:39:59;15.90;99.90
10678;DHT22;5387;48.722;9.110;2023-09-19T07:42:28;15.80;99.90
10678;DHT22;5387;48.722;9.110;2023-09-19T07:44:55;15.90;99.90
10678;DHT22;5387;48.722;9.110;2023-09-19T07:47:23;15.90;99.90
10678;DHT22;5387;48.722;9.110;2023-09-19T07:49:50;16.00;99.90
10678;DHT22;5387;48.722;9.110;2023-09-19T07:52:17;15.90;99.90
10678;DHT22;5387;48.722;9.110;2023-09-19T07:54:44;15.90;99.90
10678;DHT22;5387;48.722;9.110;2023-09-19T07:57:13;16.10;99.90
10678;DHT22;5387;48.722;9.110;2023-09-19T07:59:41;16.20;99.90
10678;DHT22;5387;48.722;9.110;2023-09-19T08:02:09;16.30;99.90
10678;DHT22;5387;48.722;9.110;2023-09-19T08:04:42;16.40;99.90
10678;DHT22;5387;48.722;9.110;2023-09-19T08:07:09;16.60;99.90
10678;DHT22;5387;48.722;9.110;2023-09-19T08:09:36;16.70;99.90
10678;DHT22;5387;48.722;9.110;2023-09-19T08:12:04;16.90;99.90
10678;DHT22;5387;48.722;9.110;2023-09-19T08:14:32;17.10;99.90
10678;DHT22;5387;48.722;9.110;2023-09-19T08:16:59;17.20;99.90
10678;DHT22;5387;48.722;9.110;2023-09-19T08:19:26;17.20;99.90
10678;DHT22;5387;48.722;9.110;2023-09-19T08:21:55;17.30;99.90
10678;DHT22;5387;48.722;9.110;2023-09-19T08:24:24;17.10;99.90
10678;DHT22;5387;48.722;9.110;2023-09-19T08:26:53;17.10;99.90
10678;DHT22;5387;48.722;9.110;2023-09-19T08:29:20;17.20;99.90
10678;DHT22;5387;48.722;9.110;2023-09-19T08:31:53;17.30;99.90
10678;DHT22;5387;48.722;9.110;2023-09-19T08:34:20;17.60;99.90
10678;DHT22;5387;48.722;9.110;2023-09-19T08:36:47;17.70;99.90
10678;DHT22;5387;48.722;9.110;2023-09-19T08:39:15;17.90;99.90
10678;DHT22;5387;48.722;9.110;2023-09-19T08:41:44;17.90;99.90
10678;DHT22;5387;48.722;9.110;2023-09-19T08:44:10;17.90;99.90
10678;DHT22;5387;48.722;9.110;2023-09-19T08:46:40;17.90;99.90
10678;DHT22;5387;48.722;9.110;2023-09-19T08:49:14;18.10;99.90
10678;DHT22;5387;48.722;9.110;2023-09-19T08:51:53;18.20;99.90
10678;DHT22;5387;48.722;9.110;2023-09-19T08:54:25;18.40;99.90
10678;DHT22;5387;48.722;9.110;2023-09-19T08:56:54;18.70;99.90
10678;DHT22;5387;48.722;9.110;2023-09-19T08:59:22;18.80;99.90
10678;DHT22;5387;48.722;9.110;2023-09-19T09:01:52;19.00;99.90
10678;DHT22;5387;48.722;9.110;2023-09-19T09:04:20;19.30;99.90
10678;DHT22;5387;48.722;9.110;2023-09-19T09:06:49;19.20;99.90
10678;DHT22;5387;48.722;9.110;2023-09-19T09:09:19;18.80;99.90
10678;DHT22;5387;48.722;9.110;2023-09-19T09:11:48;18.30;99.90
10678;DHT22;5387;48.722;9.110;2023-09-19T09:14:17;18.40;99.90
10678;DHT22;5387;48.722;9.110;2023-09-19T09:16:45;18.50;99.90
10678;DHT22;5387;48.722;9.110;2023-09-19T09:19:13;18.60;99.90
10678;DHT22;5387;48.722;9.110;2023-09-19T09:21:40;18.70;99.90
10678;DHT22;5387;48.722;9.110;2023-09-19T09:24:26;19.10;99.90
10678;DHT22;5387;48.722;9.110;2023-09-19T09:26:54;18.90;99.90
10678;DHT22;5387;48.722;9.110;2023-09-19T09:29:43;18.90;99.90
10678;DHT22;5387;48.722;9.110;2023-09-19T09:32:20;18.90;99.90
10678;DHT22;5387;48.722;9.110;2023-09-19T09:34:50;18.70;99.90
10678;DHT22;5387;48.722;9.110;2023-09-19T09:37:18;18.50;99.90
10678;DHT22;5387;48.722;9.110;2023-09-19T09:39:50;18.60;99.90
10678;DHT22;5387;48.722;9.110;2023-09-19T09:42:34;18.50;99.90
10678;DHT22;5387;48.722;9.110;2023-09-19T09:45:15;18.40;99.90
10678;DHT22;5387;48.722;9.110;2023-09-19T09:47:44;18.30;99.90
10678;DHT22;5387;48.722;9.110;2023-09-19T09:50:24;18.40;99.90
10678;DHT22;5387;48.722;9.110;2023-09-19T09:52:55;18.60;99.90
10678;DHT22;5387;48.722;9.110;2023-09-19T09:55:26;18.40;99.90
10678;DHT22;5387;48.722;9.110;2023-09-19T09:58:16;18.00;99.90
10678;DHT22;5387;48.722;9.110;2023-09-19T10:00:52;18.20;99.90
10678;DHT22;5387;48.722;9.110;2023-09-19T10:03:31;18.10;99.90
10678;DHT22;5387;48.722;9.110;2023-09-19T10:05:59;18.50;99.90
10678;DHT22;5387;48.722;9.110;2023-09-19T10:08:28;18.60;99.90
10678;DHT22;5387;48.722;9.110;2023-09-19T10:10:57;19.10;99.90
10678;DHT22;5387;48.722;9.110;2023-09-19T10:13:35;19.40;99.90
10678;DHT22;5387;48.722;9.110;2023-09-19T10:16:10;19.70;99.90
10678;DHT22;5387;48.722;9.110;2023-09-19T10:18:40;19.70;99.90
10678;DHT22;5387;48.722;9.110;2023-09-19T10:21:09;19.90;99.90
10678;DHT22;5387;48.722;9.110;2023-09-19T10:23:38;20.10;99.90
10678;DHT22;5387;48.722;9.110;2023-09-19T10:26:08;19.90;99.90
10678;DHT22;5387;48.722;9.110;2023-09-19T10:28:38;19.90;99.90
10678;DHT22;5387;48.722;9.110;2023-09-19T10:31:05;20.30;99.90
10678;DHT22;5387;48.722;9.110;2023-09-19T10:33:36;20.40;99.90
10678;DHT22;5387;48.722;9.110;2023-09-19T10:36:05;20.80;99.90
10678;DHT22;5387;48.722;9.110;2023-09-19T10:38:33;20.80;99.90
10678;DHT22;5387;48.722;9.110;2023-09-19T10:41:01;20.60;99.90
10678;DHT22;5387;48.722;9.110;2023-09-19T10:43:31;20.60;99.90
10678;DHT22;5387;48.722;9.110;2023-09-19T10:46:01;20.30;99.90
10678;DHT22;5387;48.722;9.110;2023-09-19T10:48:29;20.10;99.90
10678;DHT22;5387;48.722;9.110;2023-09-19T10:51:02;20.30;99.90
10678;DHT22;5387;48.722;9.110;2023-09-19T10:53:44;20.20;99.90
10678;DHT22;5387;48.722;9.110;2023-09-19T10:56:18;20.10;99.90
10678;DHT22;5387;48.722;9.110;2023-09-19T10:58:46;20.50;99.90
10678;DHT22;5387;48.722;9.110;2023-09-19T11:01:16;20.80;99.90
10678;DHT22;5387;48.722;9.110;2023-09-19T11:03:44;20.90;99.90
10678;DHT22;5387;48.722;9.110;2023-09-19T11:06:13;21.00;99.90
10678;DHT22;5387;48.722;9.110;2023-09-19T11:08:59;20.90;99.90
10678;DHT22;5387;48.722;9.110;2023-09-19T11:11:50;20.70;99.90
10678;DHT22;5387;48.722;9.110;2023-09-19T11:14:37;20.50;99.90
10678;DHT22;5387;48.722;9.110;2023-09-19T11:20:22;20.50;99.90
10678;DHT22;5387;48.722;9.110;2023-09-19T11:23:31;20.70;99.90
10678;DHT22;5387;48.722;9.110;2023-09-19T11:25:59;21.00;99.90
10678;DHT22;5387;48.722;9.110;2023-09-19T11:28:29;20.70;99.90
10678;DHT22;5387;48.722;9.110;2023-09-19T11:30:56;20.30;99.90
10678;DHT22;5387;48.722;9.110;2023-09-19T11:33:25;20.20;99.90
10678;DHT22;5387;48.722;9.110;2023-09-19T11:36:02;20.60;99.90
10678;DHT22;5387;48.722;9.110;2023-09-19T11:38:57;20.80;99.90
10678;DHT22;5387;48.722;9.110;2023-09-19T11:41:39;20.70;99.90
10678;DHT22;5387;48.722;9.110;2023-09-19T11:44:31;20.90;99.90
10678;DHT22;5387;48.722;9.110;2023-09-19T11:47:00;21.20;99.90
10678;DHT22;5387;48.722;9.110;2023-09-19T11:49:30;21.60;99.90
10678;DHT22;5387;48.722;9.110;2023-09-19T11:52:01;22.00;99.90
10678;DHT22;5387;48.722;9.110;2023-09-19T11:54:31;22.20;99.90
10678;DHT22;5387;48.722;9.110;2023-09-19T11:56:59;22.10;99.90
10678;DHT22;5387;48.722;9.110;2023-09-19T11:59:27;21.60;99.90
10678;DHT22;5387;48.722;9.110;2023-09-19T12:01:56;21.00;99.90
10678;DHT22;5387;48.722;9.110;2023-09-19T12:04:37;20.90;99.90
10678;DHT22;5387;48.722;9.110;2023-09-19T12:07:07;20.60;99.90
10678;DHT22;5387;48.722;9.110;2023-09-19T12:09:39;20.50;99.90
10678;DHT22;5387;48.722;9.110;2023-09-19T12:12:06;20.50;99.90
10678;DHT22;5387;48.722;9.110;2023-09-19T12:14:34;20.30;99.90
10678;DHT22;5387;48.722;9.110;2023-09-19T12:17:01;20.40;99.90
10678;DHT22;5387;48.722;9.110;2023-09-19T12:19:29;20.80;99.90
10678;DHT22;5387;48.722;9.110;2023-09-19T12:21:57;21.40;99.90
10678;DHT22;5387;48.722;9.110;2023-09-19T12:24:27;21.30;99.90
10678;DHT22;5387;48.722;9.110;2023-09-19T12:27:00;20.90;99.90
10678;DHT22;5387;48.722;9.110;2023-09-19T12:29:30;20.90;99.90
10678;DHT22;5387;48.722;9.110;2023-09-19T12:31:59;20.90;99.90
10678;DHT22;5387;48.722;9.110;2023-09-19T12:34:30;20.80;99.90
10678;DHT22;5387;48.722;9.110;2023-09-19T12:37:04;20.80;99.90
10678;DHT22;5387;48.722;9.110;2023-09-19T12:39:38;20.90;99.90
10678;DHT22;5387;48.722;9.110;2023-09-19T12:42:07;21.50;99.90
10678;DHT22;5387;48.722;9.110;2023-09-19T12:44:36;21.60;99.90
10678;DHT22;5387;48.722;9.110;2023-09-19T12:47:09;21.60;99.90
10678;DHT22;5387;48.722;9.110;2023-09-19T12:50:09;21.80;99.90
10678;DHT22;5387;48.722;9.110;2023-09-19T12:52:41;21.60;99.90
10678;DHT22;5387;48.722;9.110;2023-09-19T12:55:22;21.80;99.90
10678;DHT22;5387;48.722;9.110;2023-09-19T12:58:01;21.90;99.90
10678;DHT22;5387;48.722;9.110;2023-09-19T13:00:33;22.00;99.90
10678;DHT22;5387;48.722;9.110;2023-09-19T13:03:18;22.30;99.90
10678;DHT22;5387;48.722;9.110;2023-09-19T13:05:51;22.40;99.90
10678;DHT22;5387;48.722;9.110;2023-09-19T13:08:25;22.80;99.90
10678;DHT22;5387;48.722;9.110;2023-09-19T13:11:01;22.50;99.90
10678;DHT22;5387;48.722;9.110;2023-09-19T13:13:29;22.50;99.90
10678;DHT22;5387;48.722;9.110;2023-09-19T13:15:56;22.70;99.90
10678;DHT22;5387;48.722;9.110;2023-09-19T13:18:24;22.70;99.90
10678;DHT22;5387;48.722;9.110;2023-09-19T13:21:05;22.30;99.90
10678;DHT22;5387;48.722;9.110;2023-09-19T13:23:34;22.10;99.90
10678;DHT22;5387;48.722;9.110;2023-09-19T13:26:03;22.30;99.90
10678;DHT22;5387;48.722;9.110;2023-09-19T13:28:31;22.20;99.90
10678;DHT22;5387;48.722;9.110;2023-09-19T13:30:59;22.60;99.90
10678;DHT22;5387;48.722;9.110;2023-09-19T13:33:26;22.60;99.90
10678;DHT22;5387;48.722;9.110;2023-09-19T13:35:53;22.70;99.90
10678;DHT22;5387;48.722;9.110;2023-09-19T13:38:20;22.70;99.90
10678;DHT22;5387;48.722;9.110;2023-09-19T13:40:48;22.80;99.90
10678;DHT22;5387;48.722;9.110;2023-09-19T13:43:16;22.90;99.90
10678;DHT22;5387;48.722;9.110;2023-09-19T13:45:43;22.70;99.90
10678;DHT22;5387;48.722;9.110;2023-09-19T13:48:09;22.70;99.90
10678;DHT22;5387;48.722;9.110;2023-09-19T13:50:37;22.50;99.90
10678;DHT22;5387;48.722;9.110;2023-09-19T13:53:07;22.70;99.90
10678;DHT22;5387;48.722;9.110;2023-09-19T13:55:34;22.70;99.90
10678;DHT22;5387;48.722;9.110;2023-09-19T13:58:01;22.60;99.90
10678;DHT22;5387;48.722;9.110;2023-09-19T14:00:29;22.50;99.90
10678;DHT22;5387;48.722;9.110;2023-09-19T14:02:56;22.30;99.90
10678;DHT22;5387;48.722;9.110;2023-09-19T14:05:23;22.20;99.90
10678;DHT22;5387;48.722;9.110;2023-09-19T14:07:52;22.20;99.90
10678;DHT22;5387;48.722;9.110;2023-09-19T14:10:21;22.00;99.90
10678;DHT22;5387;48.722;9.110;2023-09-19T14:12:48;21.90;99.90
10678;DHT22;5387;48.722;9.110;2023-09-19T14:15:15;21.90;99.90
10678;DHT22;5387;48.722;9.110;2023-09-19T14:17:43;21.90;99.90
10678;DHT22;5387;48.722;9.110;2023-09-19T14:20:11;21.60;99.90
10678;DHT22;5387;48.722;9.110;2023-09-19T14:22:38;21.50;99.90
10678;DHT22;5387;48.722;9.110;2023-09-19T14:25:05;21.50;99.90
10678;DHT22;5387;48.722;9.110;2023-09-19T14:27:32;21.50;99.90
10678;DHT22;5387;48.722;9.110;2023-09-19T14:29:59;21.50;99.90
10678;DHT22;5387;48.722;9.110;2023-09-19T14:32:25;21.40;99.90
10678;DHT22;5387;48.722;9.110;2023-09-19T14:34:54;21.50;99.90
10678;DHT22;5387;48.722;9.110;2023-09-19T14:37:20;21.60;99.90
10678;DHT22;5387;48.722;9.110;2023-09-19T14:39:47;21.70;99.90
10678;DHT22;5387;48.722;9.110;2023-09-19T14:42:14;21.80;99.90
10678;DHT22;5387;48.722;9.110;2023-09-19T14:44:43;21.90;99.90
10678;DHT22;5387;48.722;9.110;2023-09-19T14:47:10;21.90;99.90
10678;DHT22;5387;48.722;9.110;2023-09-19T14:49:38;21.90;99.90
10678;DHT22;5387;48.722;9.110;2023-09-19T14:52:07;21.90;99.90
10678;DHT22;5387;48.722;9.110;2023-09-19T14:54:34;21.80;99.90
10678;DHT22;5387;48.722;9.110;2023-09-19T14:57:03;21.90;99.90
10678;DHT22;5387;48.722;9.110;2023-09-19T14:59:30;21.70;99.90
10678;DHT22;5387;48.722;9.110;2023-09-19T15:01:58;21.60;99.90
10678;DHT22;5387;48.722;9.110;2023-09-19T15:04:24;21.50;99.90
10678;DHT22;5387;48.722;9.110;2023-09-19T15:06:51;21.50;99.90
10678;DHT22;5387;48.722;9.110;2023-09-19T15:09:21;21.50;99.90
10678;DHT22;5387;48.722;9.110;2023-09-19T15:11:51;21.40;99.90
10678;DHT22;5387;48.722;9.110;2023-09-19T15:14:18;21.50;99.90
10678;DHT22;5387;48.722;9.110;2023-09-19T15:16:46;21.50;99.90
10678;DHT22;5387;48.722;9.110;2023-09-19T15:19:13;21.50;99.90
10678;DHT22;5387;48.722;9.110;2023-09-19T15:21:40;21.50;99.90
10678;DHT22;5387;48.722;9.110;2023-09-19T15:24:08;21.40;99.90
10678;DHT22;5387;48.722;9.110;2023-09-19T15:26:36;21.50;99.90
10678;DHT22;5387;48.722;9.110;2023-09-19T15:29:05;21.40;99.90
10678;DHT22;5387;48.722;9.110;2023-09-19T15:31:32;21.30;99.90
10678;DHT22;5387;48.722;9.110;2023-09-19T15:33:58;21.40;99.90
10678;DHT22;5387;48.722;9.110;2023-09-19T15:36:26;21.40;99.90
10678;DHT22;5387;48.722;9.110;2023-09-19T15:38:59;21.30;99.90
10678;DHT22;5387;48.722;9.110;2023-09-19T15:41:27;21.40;99.90
10678;DHT22;5387;48.722;9.110;2023-09-19T15:43:56;21.20;99.90
10678;DHT22;5387;48.722;9.110;2023-09-19T15:46:23;21.30;99.90
10678;DHT22;5387;48.722;9.110;2023-09-19T15:48:52;21.30;99.90
10678;DHT22;5387;48.722;9.110;2023-09-19T15:51:18;21.20;99.90
10678;DHT22;5387;48.722;9.110;2023-09-19T15:53:46;21.00;99.90
10678;DHT22;5387;48.722;9.110;2023-09-19T15:56:14;21.00;99.90
10678;DHT22;5387;48.722;9.110;2023-09-19T15:58:44;21.00;99.90
10678;DHT22;5387;48.722;9.110;2023-09-19T16:01:13;21.00;99.90
10678;DHT22;5387;48.722;9.110;2023-09-19T16:03:42;21.00;99.90